Home / US / California / Boyes Hot Springs

Boyes Hot Springs, CA Weather

Current Report for Wed May 23 2018

As of 10:54 AM PDT WED MAY 23 2018

59°F 15°cBoyes Hot Springs weather conditions : Overcast

Overcast

Barometer: 29.95 inHg. rising

Humidity: 72%

Wind: W. 8mph

Wind Gust: 10mph

Wind Chill: 58°F

Dew Point: 50°F steady

Visibility: 10.00mi.

Sunrise: 5:51 AM

Sunset: 8:20 PM

Moon Phase: Waxing Gibbous Moon

Daily and Hourly Summary

Loading Boyes Hot Springs CA Summary and Hourly data for today, tonight and tomorrow...
Forecast for Boyes Hot Springs, CA:
(Forecast based on TAF for )
1139 AM PDT MON FEB 08 2016
  
MORNING AFTERNOON EVENING OVERNIGHT MORNING
Clear Clear Clear Clear Clear
Clear Clear Clear Clear Clear
Original Encoded TAF:
Dated: 1139 AM PDT MON FEB 08 2016
2016/02/08 18:39
TAF KAPC 081738Z 0818/0918 08008KT P6SM SKC 
     FM081900 09012KT P6SM SKC 
     FM090000 07007KT P6SM SKC 
     FM090600 04004KT P6SM SKC

Temperatures Today (View More Charts)

Boyes Hot Springs, CA updates by locals

Write your own report, forecast, or traffic update:

Please note by clicking on "Post" you acknowledge that you have read the Terms of Service and the report and/or forecast you are posting is in compliance with such terms. Be respectful. An inappropriate post will be removed by a moderator. If you are not finding the information you want, please be sure to note the navigation tabs just above the breadcrumbs, which are links to other data relating to this city.